KBNL/BNL METAR and TAF weather

Enter ICAO airport designator
Station Type Date Time Source
KBNL METAR 2020/12/05 05:35 UTC NOAA

KBNL 050535Z AUTO 26009G15KT 10SM FEW036 11/08 A2996 RMK AO2


Station Type Date Time Source
KBNL Decoded METAR 2020/12/05 05:35 UTC NOAA

Station name not available
Dec 05, 2020 - 12:35 AM EST / 2020.12.05 0535 UTC
Wind: from the W (260 degrees) at 10 MPH (9 KT) gusting to 17 MPH (15 KT):0
Visibility: 10 mile(s):0
Sky conditions: mostly clear
Temperature: 51 F (11 C)
Dew Point: 46 F (8 C)
Relative Humidity: 81%
Pressure (altimeter): 29.96 in. Hg (1014 hPa)
ob: KBNL 050535Z AUTO 26009G15KT 10SM FEW036 11/08 A2996 RMK AO2
cycle: 5

Station Type Date Time Source
KBNL TAF UTC NOAA

Error!

Example: see airport list